Time;durP1;ratioP1;P1;durP2;ratioP2;P2;SDS_P1;SDS_P2;PMS_P1;PMS_P2;Temp;Humidity;BMP_temperature;BMP_pressure;BME280_temperature;BME280_humidity;BME280_pressure;Samples;Min_cycle;Max_cycle;Signal;HPM_P1;HPM_P2
2022/12/21 00:02:03;;;;;;;15.50;12.18;;;;;;;;;;5016336;28;20216;-70
2022/12/21 00:04:28;;;;;;;12.52;10.00;;;;;;;;;;5025018;28;20261;-70
2022/12/21 00:06:53;;;;;;;17.52;12.75;;;;;;;;;;5045351;28;20218;-71
2022/12/21 00:09:19;;;;;;;12.90;10.20;;;;;;;;;;5024606;28;20737;-71
2022/12/21 00:11:44;;;;;;;18.90;12.27;;;;;;;;;;5025464;28;20750;-71
2022/12/21 00:14:09;;;;;;;40.50;11.15;;;;;;;;;;5024656;28;20224;-70
2022/12/21 00:16:36;;;;;;;14.65;10.55;;;;;;;;;;5007529;28;20215;-70
2022/12/21 00:19:01;;;;;;;13.32;9.98;;;;;;;;;;5021851;28;20212;-69
2022/12/21 00:21:27;;;;;;;85.35;11.55;;;;;;;;;;5017376;28;20522;-70
2022/12/21 00:23:53;;;;;;;12.23;9.70;;;;;;;;;;4998573;28;20478;-70
2022/12/21 00:26:19;;;;;;;18.75;10.55;;;;;;;;;;5017121;28;20216;-70
2022/12/21 00:28:44;;;;;;;17.05;10.23;;;;;;;;;;5044212;28;20214;-70
2022/12/21 00:31:10;;;;;;;11.35;9.35;;;;;;;;;;5043432;28;20211;-70
2022/12/21 00:33:36;;;;;;;19.30;14.43;;;;;;;;;;5024303;28;20302;-70
2022/12/21 00:36:01;;;;;;;103.78;13.20;;;;;;;;;;5024341;28;20299;-69
2022/12/21 00:38:27;;;;;;;22.20;10.43;;;;;;;;;;5024448;28;20243;-70
2022/12/21 00:40:58;;;;;;;11.98;8.82;;;;;;;;;;5024410;28;20793;-70
2022/12/21 00:43:24;;;;;;;10.73;8.60;;;;;;;;;;5024334;28;20227;-70
2022/12/21 00:45:49;;;;;;;14.52;9.90;;;;;;;;;;5050052;28;20215;-69
2022/12/21 00:48:14;;;;;;;19.58;12.50;;;;;;;;;;5053796;28;20231;-69
2022/12/21 00:50:40;;;;;;;19.02;9.75;;;;;;;;;;5054059;28;20681;-70
2022/12/21 00:53:05;;;;;;;13.15;9.75;;;;;;;;;;5053821;28;20214;-70
2022/12/21 00:55:30;;;;;;;28.67;16.85;;;;;;;;;;5049219;28;20212;-69
2022/12/21 00:57:57;;;;;;;13.70;9.73;;;;;;;;;;5033905;28;20598;-70
2022/12/21 01:00:22;;;;;;;12.70;9.13;;;;;;;;;;5028849;28;20238;-69
2022/12/21 01:02:47;;;;;;;342.55;17.73;;;;;;;;;;5054145;28;20251;-69
2022/12/21 01:05:13;;;;;;;32.55;8.65;;;;;;;;;;5053245;28;20207;-70
2022/12/21 01:07:38;;;;;;;15.70;10.30;;;;;;;;;;5047754;28;20257;-69
2022/12/21 01:10:04;;;;;;;17.85;10.88;;;;;;;;;;5019337;28;20294;-69
2022/12/21 01:12:29;;;;;;;52.67;10.82;;;;;;;;;;5053728;28;20580;-69
2022/12/21 01:14:54;;;;;;;28.98;13.07;;;;;;;;;;5053717;28;20230;-69
2022/12/21 01:17:19;;;;;;;19.40;12.23;;;;;;;;;;5022861;28;20216;-69
2022/12/21 01:19:45;;;;;;;85.43;10.80;;;;;;;;;;5021833;28;20208;-69
2022/12/21 01:22:10;;;;;;;11.55;8.57;;;;;;;;;;5022865;28;20217;-69
2022/12/21 01:24:35;;;;;;;11.15;7.95;;;;;;;;;;5025806;28;20238;-69
2022/12/21 01:27:00;;;;;;;11.02;7.43;;;;;;;;;;5024730;28;20216;-65
2022/12/21 01:29:26;;;;;;;22.02;9.20;;;;;;;;;;5021925;28;20566;-70
2022/12/21 01:31:51;;;;;;;11.38;7.72;;;;;;;;;;5022384;28;20223;-69
2022/12/21 01:34:16;;;;;;;13.88;8.98;;;;;;;;;;5023162;28;20227;-69
2022/12/21 01:36:41;;;;;;;13.35;9.00;;;;;;;;;;5032451;28;20611;-69
2022/12/21 01:39:07;;;;;;;62.75;10.38;;;;;;;;;;5024310;28;20656;-69
2022/12/21 01:41:32;;;;;;;34.75;10.75;;;;;;;;;;5021382;28;20270;-69
2022/12/21 01:43:58;;;;;;;16.27;10.43;;;;;;;;;;5032089;28;20220;-69
2022/12/21 01:46:29;;;;;;;23.00;11.82;;;;;;;;;;5036100;28;20211;-69
2022/12/21 01:48:55;;;;;;;18.50;11.45;;;;;;;;;;5035215;28;20216;-69
2022/12/21 01:51:20;;;;;;;15.73;10.85;;;;;;;;;;5033522;28;20301;-69
2022/12/21 01:53:48;;;;;;;17.73;11.38;;;;;;;;;;5015790;28;20623;-69
2022/12/21 01:56:13;;;;;;;17.80;11.25;;;;;;;;;;5033233;28;20200;-69
2022/12/21 01:58:38;;;;;;;13.85;10.82;;;;;;;;;;5015685;28;20571;-69
2022/12/21 02:01:04;;;;;;;17.30;11.48;;;;;;;;;;5032755;28;20285;-69
2022/12/21 02:03:31;;;;;;;19.58;12.15;;;;;;;;;;5053740;28;20231;-69
2022/12/21 02:05:59;;;;;;;22.92;13.85;;;;;;;;;;5035607;28;20220;-69
2022/12/21 02:08:24;;;;;;;16.92;11.25;;;;;;;;;;5043956;28;20237;-69
2022/12/21 02:10:50;;;;;;;17.25;11.45;;;;;;;;;;5044555;28;20730;-69
2022/12/21 02:13:15;;;;;;;19.95;12.68;;;;;;;;;;5034758;28;20211;-69
2022/12/21 02:15:59;;;;;;;26.25;15.27;;;;;;;;;;5032740;28;20224;-69
2022/12/21 02:18:43;;;;;;;30.08;18.40;;;;;;;;;;5012775;28;20683;-69
2022/12/21 02:21:22;;;;;;;35.53;19.80;;;;;;;;;;5012564;28;20290;-69
2022/12/21 02:23:51;;;;;;;45.00;23.80;;;;;;;;;;5014850;28;20224;-70
2022/12/21 02:26:20;;;;;;;49.80;25.98;;;;;;;;;;5022804;28;20216;-69
2022/12/21 02:28:45;;;;;;;41.92;24.67;;;;;;;;;;5031553;28;20669;-69
2022/12/21 02:31:22;;;;;;;56.25;22.13;;;;;;;;;;5031661;28;20219;-69
2022/12/21 02:33:52;;;;;;;258.55;26.80;;;;;;;;;;5031357;28;20203;-69
2022/12/21 02:36:26;;;;;;;28.25;16.83;;;;;;;;;;5030788;28;20211;-69
2022/12/21 02:38:57;;;;;;;63.60;19.77;;;;;;;;;;5031111;28;20238;-69
2022/12/21 02:41:29;;;;;;;28.55;17.08;;;;;;;;;;5027165;28;20219;-69
2022/12/21 02:44:13;;;;;;;30.90;18.63;;;;;;;;;;5018063;28;20222;-69
2022/12/21 02:46:39;;;;;;;58.22;20.05;;;;;;;;;;5031943;28;20208;-69
2022/12/21 02:49:05;;;;;;;31.75;18.10;;;;;;;;;;5027530;28;20208;-69
2022/12/21 02:51:34;;;;;;;33.38;20.42;;;;;;;;;;5030781;28;20208;-69
2022/12/21 02:53:59;;;;;;;39.13;22.60;;;;;;;;;;5031039;28;20220;-70
2022/12/21 02:56:25;;;;;;;42.78;25.10;;;;;;;;;;5020267;28;20209;-74
2022/12/21 02:58:50;;;;;;;53.00;28.17;;;;;;;;;;5009400;28;20211;-74
2022/12/21 03:01:17;;;;;;;50.90;27.02;;;;;;;;;;5013201;28;20725;-74
2022/12/21 03:03:50;;;;;;;48.70;26.83;;;;;;;;;;5039295;28;20253;-74
2022/12/21 03:06:15;;;;;;;83.85;31.52;;;;;;;;;;5030881;28;20266;-74
2022/12/21 03:08:51;;;;;;;48.78;26.05;;;;;;;;;;5022394;28;20682;-74
2022/12/21 03:11:16;;;;;;;55.83;28.02;;;;;;;;;;5039169;28;20222;-74
2022/12/21 03:13:46;;;;;;;56.85;27.58;;;;;;;;;;5039111;28;20199;-74
2022/12/21 03:16:11;;;;;;;53.33;28.17;;;;;;;;;;5029800;28;20220;-73
2022/12/21 03:18:42;;;;;;;46.80;25.30;;;;;;;;;;5016512;28;20231;-74
2022/12/21 03:21:10;;;;;;;43.67;23.75;;;;;;;;;;5013532;28;20309;-74
2022/12/21 03:23:39;;;;;;;53.97;25.88;;;;;;;;;;5031768;28;20800;-74
2022/12/21 03:26:17;;;;;;;47.15;27.02;;;;;;;;;;5037576;28;20218;-74
2022/12/21 03:28:42;;;;;;;53.40;27.05;;;;;;;;;;5041637;28;20252;-74
2022/12/21 03:31:09;;;;;;;43.08;24.10;;;;;;;;;;5036269;28;20219;-74
2022/12/21 03:33:36;;;;;;;35.15;21.50;;;;;;;;;;5039610;28;21187;-74
2022/12/21 03:36:03;;;;;;;37.08;22.17;;;;;;;;;;5039922;28;20647;-73
2022/12/21 03:38:30;;;;;;;40.47;23.10;;;;;;;;;;5041737;28;20249;-74
2022/12/21 03:40:56;;;;;;;45.28;25.33;;;;;;;;;;5035439;28;20223;-74
2022/12/21 03:43:23;;;;;;;45.42;23.75;;;;;;;;;;5031835;28;20230;-74
2022/12/21 03:45:50;;;;;;;37.90;20.45;;;;;;;;;;5033112;28;20277;-74
2022/12/21 03:48:16;;;;;;;198.68;22.70;;;;;;;;;;5028162;28;20219;-74
2022/12/21 03:50:43;;;;;;;31.42;19.40;;;;;;;;;;5020760;28;20203;-74
2022/12/21 03:53:21;;;;;;;39.50;21.38;;;;;;;;;;5039436;28;21212;-73
2022/12/21 03:55:46;;;;;;;35.25;20.75;;;;;;;;;;5039494;28;20215;-74
2022/12/21 03:58:11;;;;;;;63.40;22.67;;;;;;;;;;5039804;28;20207;-75
2022/12/21 04:00:43;;;;;;;132.02;23.73;;;;;;;;;;5040249;28;20732;-74
2022/12/21 04:03:11;;;;;;;75.47;22.52;;;;;;;;;;5036849;28;20239;-74
2022/12/21 04:05:38;;;;;;;426.55;28.13;;;;;;;;;;5028839;28;20220;-74
2022/12/21 04:08:04;;;;;;;74.88;20.33;;;;;;;;;;5030659;28;20697;-74
2022/12/21 04:10:29;;;;;;;30.73;19.27;;;;;;;;;;5037897;28;20211;-75
2022/12/21 04:12:54;;;;;;;30.15;19.45;;;;;;;;;;5045487;28;20323;-75
2022/12/21 04:15:23;;;;;;;32.70;20.23;;;;;;;;;;5041012;28;20531;-74
2022/12/21 04:17:48;;;;;;;31.25;19.05;;;;;;;;;;5023435;28;20246;-75
2022/12/21 04:20:15;;;;;;;57.97;20.77;;;;;;;;;;5023491;28;20204;-74
2022/12/21 04:28:14;;;;;;;54.67;21.02;;;;;;;;;;5034693;28;20258;-75
2022/12/21 04:30:40;;;;;;;156.48;25.38;;;;;;;;;;5034315;28;20687;-75
2022/12/21 04:33:06;;;;;;;34.40;18.45;;;;;;;;;;5033183;28;20596;-73
2022/12/21 04:35:31;;;;;;;43.58;17.65;;;;;;;;;;5034917;28;20679;-75
2022/12/21 04:37:56;;;;;;;25.25;16.17;;;;;;;;;;5034280;28;20266;-74
2022/12/21 04:40:22;;;;;;;30.00;16.23;;;;;;;;;;5033204;28;20652;-74
2022/12/21 04:42:47;;;;;;;28.52;16.42;;;;;;;;;;5034135;28;20274;-74
2022/12/21 04:45:12;;;;;;;29.73;18.17;;;;;;;;;;5032907;28;20218;-74
2022/12/21 04:47:37;;;;;;;28.92;17.50;;;;;;;;;;5037159;28;20253;-75
2022/12/21 04:50:03;;;;;;;26.58;16.85;;;;;;;;;;5052265;28;20223;-74
2022/12/21 04:52:29;;;;;;;35.80;21.40;;;;;;;;;;5054248;28;20568;-75
2022/12/21 04:54:55;;;;;;;45.08;22.45;;;;;;;;;;5054755;28;20583;-74
2022/12/21 04:57:20;;;;;;;50.50;25.95;;;;;;;;;;5033510;28;20224;-74
2022/12/21 04:59:45;;;;;;;40.75;22.77;;;;;;;;;;5034292;28;20219;-75
2022/12/21 05:02:11;;;;;;;46.15;23.35;;;;;;;;;;5033583;28;20365;-75
2022/12/21 05:04:36;;;;;;;47.83;24.60;;;;;;;;;;5033639;28;20298;-75
2022/12/21 05:07:01;;;;;;;47.50;24.83;;;;;;;;;;5033428;28;20216;-74
2022/12/21 05:09:27;;;;;;;49.45;25.08;;;;;;;;;;5034261;28;20338;-74
2022/12/21 05:11:52;;;;;;;44.90;24.15;;;;;;;;;;5016148;28;20218;-75
2022/12/21 05:14:18;;;;;;;49.65;27.52;;;;;;;;;;5033470;28;20713;-75
2022/12/21 05:16:43;;;;;;;42.78;24.70;;;;;;;;;;5019676;28;20205;-75
2022/12/21 05:19:08;;;;;;;49.40;24.92;;;;;;;;;;5012843;28;20680;-74
2022/12/21 05:21:33;;;;;;;43.85;24.85;;;;;;;;;;4996650;28;20287;-75
2022/12/21 05:23:59;;;;;;;40.55;23.67;;;;;;;;;;5019196;28;20715;-75
2022/12/21 05:26:24;;;;;;;39.95;23.45;;;;;;;;;;5032539;28;20223;-75
2022/12/21 05:28:49;;;;;;;43.13;24.23;;;;;;;;;;5031360;28;20706;-75
2022/12/21 05:31:15;;;;;;;50.97;27.50;;;;;;;;;;5029582;28;20208;-75
2022/12/21 05:33:40;;;;;;;50.45;24.25;;;;;;;;;;5031400;28;20247;-75
2022/12/21 05:36:06;;;;;;;47.58;25.80;;;;;;;;;;5020964;28;20217;-74
2022/12/21 05:38:32;;;;;;;44.60;24.10;;;;;;;;;;4996373;28;20220;-75
2022/12/21 05:40:57;;;;;;;40.58;23.05;;;;;;;;;;5013256;28;20311;-75
2022/12/21 05:43:22;;;;;;;55.92;26.38;;;;;;;;;;5013336;28;20216;-75
2022/12/21 05:45:48;;;;;;;51.78;26.80;;;;;;;;;;5013848;28;20684;-75
2022/12/21 05:48:13;;;;;;;44.17;23.90;;;;;;;;;;5021111;28;20223;-75
2022/12/21 05:50:39;;;;;;;43.20;24.13;;;;;;;;;;5033288;28;20295;-75
2022/12/21 05:53:04;;;;;;;49.95;25.98;;;;;;;;;;5014870;28;20305;-74
2022/12/21 05:55:29;;;;;;;45.88;25.88;;;;;;;;;;5024273;28;20272;-74
2022/12/21 05:57:55;;;;;;;49.72;26.20;;;;;;;;;;4993995;28;20664;-75
2022/12/21 06:00:20;;;;;;;45.33;25.58;;;;;;;;;;4992718;28;20220;-74
2022/12/21 06:02:45;;;;;;;43.78;24.42;;;;;;;;;;5000940;28;20810;-74
2022/12/21 06:05:11;;;;;;;47.50;26.10;;;;;;;;;;5012799;28;20223;-74
2022/12/21 06:07:36;;;;;;;50.70;27.65;;;;;;;;;;5012943;28;20204;-74
2022/12/21 06:10:01;;;;;;;45.20;26.23;;;;;;;;;;5003702;28;20224;-73
2022/12/21 06:12:28;;;;;;;47.58;26.70;;;;;;;;;;4996625;28;20650;-74
2022/12/21 06:14:54;;;;;;;60.00;28.17;;;;;;;;;;5005690;28;20208;-75
2022/12/21 06:17:19;;;;;;;52.50;27.33;;;;;;;;;;4994394;28;20640;-75
2022/12/21 06:19:44;;;;;;;79.05;31.48;;;;;;;;;;5002670;28;20286;-74
2022/12/21 06:22:09;;;;;;;59.42;29.55;;;;;;;;;;5001869;28;20212;-69
2022/12/21 06:24:35;;;;;;;59.30;29.17;;;;;;;;;;5003523;28;20261;-72
2022/12/21 06:27:00;;;;;;;54.83;28.85;;;;;;;;;;5004046;28;20218;-69
2022/12/21 06:29:25;;;;;;;52.30;28.73;;;;;;;;;;5003902;28;20208;-71
2022/12/21 06:31:51;;;;;;;63.03;29.90;;;;;;;;;;5018024;28;20242;-72
2022/12/21 06:34:16;;;;;;;58.78;29.60;;;;;;;;;;5000628;28;20266;-71
2022/12/21 06:36:41;;;;;;;48.05;27.48;;;;;;;;;;4995099;28;20201;-71
2022/12/21 06:39:07;;;;;;;48.08;26.13;;;;;;;;;;4994500;28;20240;-71
2022/12/21 06:41:32;;;;;;;54.25;28.20;;;;;;;;;;5000237;28;20710;-72
2022/12/21 06:43:57;;;;;;;51.10;28.77;;;;;;;;;;5017873;28;20734;-71
2022/12/21 06:46:22;;;;;;;46.38;26.98;;;;;;;;;;5023188;28;20219;-71
2022/12/21 06:48:48;;;;;;;49.63;26.13;;;;;;;;;;5024585;28;20218;-71
2022/12/21 06:51:14;;;;;;;45.33;25.85;;;;;;;;;;5022324;28;20211;-70
2022/12/21 06:53:40;;;;;;;51.70;26.73;;;;;;;;;;5021964;28;20210;-71
2022/12/21 06:56:07;;;;;;;43.80;24.42;;;;;;;;;;5022417;28;20208;-71
2022/12/21 06:58:32;;;;;;;43.28;24.90;;;;;;;;;;5014384;28;20261;-71
2022/12/21 07:01:05;;;;;;;55.42;26.60;;;;;;;;;;5014097;28;20219;-71
2022/12/21 07:03:30;;;;;;;49.05;26.40;;;;;;;;;;5033924;28;20326;-71
2022/12/21 07:05:55;;;;;;;51.35;28.02;;;;;;;;;;5030699;28;20315;-71
2022/12/21 07:08:21;;;;;;;51.70;28.73;;;;;;;;;;5021956;28;20219;-71
2022/12/21 07:10:46;;;;;;;54.78;28.70;;;;;;;;;;5029664;28;20663;-71
2022/12/21 07:13:12;;;;;;;50.55;28.30;;;;;;;;;;5037765;28;20215;-69
2022/12/21 07:15:37;;;;;;;49.08;27.70;;;;;;;;;;5038542;28;20706;-72
2022/12/21 07:18:02;;;;;;;47.28;26.17;;;;;;;;;;5020119;28;20219;-69
2022/12/21 07:20:28;;;;;;;49.33;31.77;;;;;;;;;;5030789;28;20417;-75
2022/12/21 07:22:53;;;;;;;48.33;27.90;;;;;;;;;;5030758;28;20439;-73
2022/12/21 07:25:18;;;;;;;47.17;27.38;;;;;;;;;;5023956;28;20269;-71
2022/12/21 07:27:44;;;;;;;51.72;27.50;;;;;;;;;;5027947;28;20564;-75
2022/12/21 07:30:09;;;;;;;46.33;26.63;;;;;;;;;;5022974;28;20351;-75
2022/12/21 07:32:34;;;;;;;45.35;25.15;;;;;;;;;;5021433;28;20342;-73
2022/12/21 07:35:00;;;;;;;58.07;28.47;;;;;;;;;;5025972;28;20702;-74
2022/12/21 07:37:25;;;;;;;45.80;26.00;;;;;;;;;;5025518;28;20345;-72
2022/12/21 07:39:50;;;;;;;46.75;24.98;;;;;;;;;;5025932;28;20208;-74
2022/12/21 07:42:15;;;;;;;38.85;24.33;;;;;;;;;;5017815;28;20705;-68
2022/12/21 07:44:41;;;;;;;49.57;28.77;;;;;;;;;;5014801;28;20441;-70
2022/12/21 07:47:06;;;;;;;48.63;27.30;;;;;;;;;;5013661;28;20212;-69
2022/12/21 07:49:31;;;;;;;44.70;25.88;;;;;;;;;;5039462;28;20226;-69
2022/12/21 07:51:57;;;;;;;42.42;25.63;;;;;;;;;;5047154;28;20226;-67
2022/12/21 07:54:23;;;;;;;45.55;25.13;;;;;;;;;;5043132;28;20211;-69
2022/12/21 07:56:48;;;;;;;46.30;27.13;;;;;;;;;;5038168;28;20236;-68
2022/12/21 07:59:13;;;;;;;61.58;28.67;;;;;;;;;;5053643;28;20227;-68
2022/12/21 08:01:39;;;;;;;49.97;26.65;;;;;;;;;;5054778;28;20231;-68
2022/12/21 08:04:06;;;;;;;45.25;25.27;;;;;;;;;;5054848;28;20242;-68
2022/12/21 08:06:32;;;;;;;40.97;24.35;;;;;;;;;;5055164;28;20203;-65
2022/12/21 08:08:57;;;;;;;47.75;25.25;;;;;;;;;;5051460;28;20238;-65
2022/12/21 08:11:23;;;;;;;46.97;25.23;;;;;;;;;;5039443;28;20219;-64
2022/12/21 08:13:48;;;;;;;42.90;25.08;;;;;;;;;;5044387;28;20209;-68
2022/12/21 08:16:14;;;;;;;46.65;25.55;;;;;;;;;;5033464;28;20683;-65
2022/12/21 08:18:39;;;;;;;41.45;24.48;;;;;;;;;;5039815;28;20255;-65
2022/12/21 08:21:04;;;;;;;45.88;24.65;;;;;;;;;;5034551;28;20268;-65
2022/12/21 08:23:30;;;;;;;51.17;25.15;;;;;;;;;;5039820;28;20227;-65
2022/12/21 08:25:59;;;;;;;40.30;23.15;;;;;;;;;;5031146;28;20212;-66
2022/12/21 08:28:25;;;;;;;35.92;22.65;;;;;;;;;;5017949;28;20546;-68
2022/12/21 08:30:50;;;;;;;42.72;23.52;;;;;;;;;;5349108;23;20605;-66
2022/12/21 08:33:16;;;;;;;43.85;24.10;;;;;;;;;;4990406;28;20161;-67
2022/12/21 08:35:42;;;;;;;44.45;23.60;;;;;;;;;;4996503;28;20181;-67
2022/12/21 08:38:08;;;;;;;40.85;22.73;;;;;;;;;;4995290;28;20591;-68
2022/12/21 08:40:33;;;;;;;42.15;22.63;;;;;;;;;;4996579;28;20218;-65
2022/12/21 08:42:58;;;;;;;38.25;20.98;;;;;;;;;;4995974;28;20213;-66
2022/12/21 08:45:23;;;;;;;37.83;21.85;;;;;;;;;;4992570;28;20232;-66
2022/12/21 08:47:49;;;;;;;36.00;21.50;;;;;;;;;;4976884;28;20201;-68
2022/12/21 08:50:14;;;;;;;36.10;20.88;;;;;;;;;;4988537;28;20628;-69
2022/12/21 08:52:39;;;;;;;32.13;19.38;;;;;;;;;;4995203;28;20220;-69
2022/12/21 08:55:05;;;;;;;32.50;19.58;;;;;;;;;;4996343;28;20172;-69
2022/12/21 08:57:30;;;;;;;28.95;16.77;;;;;;;;;;4993154;28;20264;-69
2022/12/21 08:59:55;;;;;;;29.63;17.30;;;;;;;;;;4994218;28;20205;-68
2022/12/21 09:02:21;;;;;;;32.53;18.00;;;;;;;;;;4994263;28;20209;-68
2022/12/21 09:04:46;;;;;;;31.13;17.23;;;;;;;;;;4995278;28;20201;-69
2022/12/21 09:07:11;;;;;;;28.83;17.23;;;;;;;;;;4993311;28;20670;-68
2022/12/21 09:09:36;;;;;;;27.93;16.63;;;;;;;;;;4994975;28;20300;-68
2022/12/21 09:12:02;;;;;;;27.73;15.40;;;;;;;;;;4994303;28;20220;-67
2022/12/21 09:14:27;;;;;;;27.05;16.15;;;;;;;;;;4990184;28;20552;-68
2022/12/21 09:16:53;;;;;;;29.52;16.48;;;;;;;;;;4973090;28;20220;-68
2022/12/21 09:19:18;;;;;;;28.52;15.45;;;;;;;;;;4994503;28;20209;-68
2022/12/21 09:21:43;;;;;;;28.27;15.10;;;;;;;;;;4988150;28;20221;-68
2022/12/21 09:24:09;;;;;;;25.67;14.80;;;;;;;;;;4974524;28;20218;-68
2022/12/21 09:26:34;;;;;;;23.48;14.40;;;;;;;;;;4975029;28;20221;-68
2022/12/21 09:28:59;;;;;;;25.08;14.23;;;;;;;;;;4974428;28;20680;-67
2022/12/21 09:31:24;;;;;;;34.00;17.23;;;;;;;;;;4960515;28;20218;-68
2022/12/21 09:33:50;;;;;;;34.15;17.58;;;;;;;;;;4989595;28;20209;-68
2022/12/21 09:36:16;;;;;;;32.77;17.70;;;;;;;;;;4975140;28;20228;-68
2022/12/21 09:38:41;;;;;;;29.17;14.65;;;;;;;;;;4974822;28;20210;-68
2022/12/21 09:41:06;;;;;;;28.93;16.53;;;;;;;;;;4983049;28;20216;-68
2022/12/21 09:43:37;;;;;;;31.38;15.85;;;;;;;;;;4993592;28;20308;-68
2022/12/21 09:46:04;;;;;;;26.10;15.40;;;;;;;;;;4992688;28;20220;-68
2022/12/21 09:48:30;;;;;;;29.13;15.43;;;;;;;;;;4991972;28;21042;-68
2022/12/21 09:50:58;;;;;;;28.38;15.65;;;;;;;;;;4994127;28;20340;-68
2022/12/21 09:53:25;;;;;;;29.15;15.95;;;;;;;;;;4991117;28;20217;-68
2022/12/21 09:55:52;;;;;;;26.63;16.57;;;;;;;;;;4987149;28;20491;-67
2022/12/21 09:58:21;;;;;;;30.08;14.93;;;;;;;;;;4992533;28;20250;-67
2022/12/21 10:00:47;;;;;;;27.55;14.63;;;;;;;;;;4994007;28;20220;-65
2022/12/21 10:03:17;;;;;;;26.05;14.32;;;;;;;;;;4991430;28;20225;-66
2022/12/21 10:05:56;;;;;;;26.17;14.48;;;;;;;;;;4989343;28;20221;-66
2022/12/21 10:08:22;;;;;;;25.63;14.23;;;;;;;;;;5011242;28;20217;-66
2022/12/21 10:10:53;;;;;;;25.48;14.30;;;;;;;;;;5012238;28;20269;-66
2022/12/21 10:13:25;;;;;;;28.45;14.18;;;;;;;;;;5011852;28;20219;-66
2022/12/21 10:16:04;;;;;;;27.17;13.60;;;;;;;;;;5012498;28;20254;-66
2022/12/21 10:18:40;;;;;;;28.45;14.40;;;;;;;;;;5010397;28;20220;-65
2022/12/21 10:21:11;;;;;;;29.10;14.15;;;;;;;;;;5012633;28;20239;-66
2022/12/21 10:23:40;;;;;;;24.55;12.77;;;;;;;;;;5011225;28;20583;-66
2022/12/21 10:26:06;;;;;;;24.42;13.20;;;;;;;;;;5010936;28;20311;-65
2022/12/21 10:28:38;;;;;;;25.70;13.37;;;;;;;;;;5010700;28;20509;-65
2022/12/21 10:31:03;;;;;;;24.98;12.68;;;;;;;;;;4991035;28;20240;-65
2022/12/21 10:33:29;;;;;;;26.42;12.52;;;;;;;;;;5008088;28;20578;-66
2022/12/21 10:35:54;;;;;;;35.35;14.30;;;;;;;;;;5013151;28;20216;-66
2022/12/21 10:38:20;;;;;;;28.20;12.60;;;;;;;;;;5010327;28;20231;-65
2022/12/21 10:40:47;;;;;;;26.20;12.52;;;;;;;;;;5012070;28;20282;-65
2022/12/21 10:43:13;;;;;;;27.13;13.30;;;;;;;;;;5012444;28;20690;-65
2022/12/21 10:45:38;;;;;;;27.67;12.70;;;;;;;;;;5012264;28;20266;-66
2022/12/21 10:48:03;;;;;;;24.45;12.40;;;;;;;;;;5012336;28;20235;-66
2022/12/21 10:50:30;;;;;;;23.03;12.83;;;;;;;;;;5011385;28;20219;-64
2022/12/21 10:52:56;;;;;;;29.25;13.35;;;;;;;;;;5010595;28;20239;-64
2022/12/21 10:55:21;;;;;;;29.13;14.18;;;;;;;;;;5011890;28;20660;-64
2022/12/21 10:57:49;;;;;;;28.38;12.85;;;;;;;;;;5012335;28;20216;-64
2022/12/21 11:00:20;;;;;;;31.30;13.32;;;;;;;;;;5011177;28;20216;-65
2022/12/21 11:02:46;;;;;;;27.38;13.77;;;;;;;;;;5012385;28;20236;-65
2022/12/21 11:05:25;;;;;;;29.75;13.32;;;;;;;;;;5010877;28;20208;-66
2022/12/21 11:07:51;;;;;;;28.95;12.98;;;;;;;;;;5010825;28;20612;-67
2022/12/21 11:10:22;;;;;;;31.08;13.07;;;;;;;;;;5011891;28;20212;-65
2022/12/21 11:12:48;;;;;;;27.08;12.32;;;;;;;;;;5011859;28;20223;-65
2022/12/21 11:15:18;;;;;;;30.13;12.98;;;;;;;;;;5012057;28;20212;-65
2022/12/21 11:17:43;;;;;;;29.48;12.45;;;;;;;;;;5011430;28;20200;-65
2022/12/21 11:20:13;;;;;;;32.78;12.95;;;;;;;;;;5012743;28;20223;-65
2022/12/21 11:22:39;;;;;;;29.33;12.97;;;;;;;;;;5015257;28;20216;-66
2022/12/21 11:25:04;;;;;;;27.07;13.07;;;;;;;;;;5015676;28;20212;-64
2022/12/21 11:27:30;;;;;;;30.52;13.93;;;;;;;;;;5015462;28;20220;-65
2022/12/21 11:29:55;;;;;;;28.40;14.35;;;;;;;;;;5014796;28;20220;-65
2022/12/21 11:32:21;;;;;;;25.90;13.38;;;;;;;;;;5015708;28;20298;-65
2022/12/21 11:34:49;;;;;;;27.83;14.68;;;;;;;;;;5015120;28;20239;-65
2022/12/21 11:37:21;;;;;;;29.58;15.05;;;;;;;;;;5014233;28;20209;-64
2022/12/21 11:39:46;;;;;;;30.58;15.70;;;;;;;;;;5016452;28;20204;-64
2022/12/21 11:42:18;;;;;;;28.83;16.27;;;;;;;;;;4994896;28;20220;-64
2022/12/21 11:44:43;;;;;;;31.38;16.63;;;;;;;;;;4996244;28;20224;-65
2022/12/21 11:47:10;;;;;;;32.97;16.38;;;;;;;;;;4995926;28;20209;-65
2022/12/21 11:49:36;;;;;;;31.65;18.33;;;;;;;;;;4995538;28;20293;-64
2022/12/21 11:52:05;;;;;;;34.05;19.00;;;;;;;;;;4995985;28;20344;-70
2022/12/21 11:54:36;;;;;;;35.67;18.65;;;;;;;;;;4996221;28;20217;-65
2022/12/21 11:57:12;;;;;;;32.58;19.13;;;;;;;;;;5011893;28;20216;-65
2022/12/21 11:59:44;;;;;;;31.92;19.92;;;;;;;;;;5014625;28;20208;-65
2022/12/21 12:02:19;;;;;;;29.50;18.88;;;;;;;;;;5013327;28;20323;-65
2022/12/21 12:04:48;;;;;;;36.85;19.73;;;;;;;;;;5014376;28;20220;-65
2022/12/21 12:07:21;;;;;;;36.65;19.27;;;;;;;;;;5015233;28;20209;-65
2022/12/21 12:09:53;;;;;;;28.33;17.35;;;;;;;;;;5013601;28;20212;-65
2022/12/21 12:12:23;;;;;;;28.75;16.17;;;;;;;;;;5015001;28;20355;-64
2022/12/21 12:14:52;;;;;;;31.20;16.65;;;;;;;;;;5014272;28;20216;-64
2022/12/21 12:17:30;;;;;;;28.60;16.65;;;;;;;;;;5014403;28;20298;-64
2022/12/21 12:20:06;;;;;;;30.10;14.95;;;;;;;;;;5014634;28;20212;-65
2022/12/21 12:22:35;;;;;;;26.27;14.55;;;;;;;;;;4994353;28;20665;-65
2022/12/21 12:25:13;;;;;;;30.45;14.93;;;;;;;;;;4993160;28;20256;-65
2022/12/21 12:27:45;;;;;;;23.95;12.45;;;;;;;;;;4994518;28;20240;-65
2022/12/21 12:30:18;;;;;;;23.15;12.68;;;;;;;;;;4994364;28;20221;-65
2022/12/21 12:32:58;;;;;;;26.30;12.68;;;;;;;;;;4976849;28;20287;-65
2022/12/21 12:35:24;;;;;;;20.33;11.52;;;;;;;;;;4975538;28;20210;-65
2022/12/21 12:37:54;;;;;;;26.88;11.80;;;;;;;;;;4975401;28;20221;-65
2022/12/21 12:40:32;;;;;;;20.58;11.52;;;;;;;;;;4978190;28;20213;-65
2022/12/21 12:43:00;;;;;;;21.80;10.52;;;;;;;;;;4995287;28;20308;-64
2022/12/21 12:45:25;;;;;;;24.50;11.68;;;;;;;;;;4994471;28;20224;-64
2022/12/21 12:47:54;;;;;;;26.92;10.77;;;;;;;;;;4995282;28;20217;-64
2022/12/21 12:50:23;;;;;;;19.45;10.73;;;;;;;;;;4995089;28;20851;-64
2022/12/21 12:52:49;;;;;;;23.03;10.97;;;;;;;;;;4994166;28;20217;-64
2022/12/21 12:55:17;;;;;;;22.25;11.07;;;;;;;;;;4994406;28;20224;-64
2022/12/21 12:57:48;;;;;;;23.35;11.45;;;;;;;;;;4977572;28;20209;-65
2022/12/21 13:00:14;;;;;;;23.63;11.20;;;;;;;;;;4993689;28;20692;-65
2022/12/21 13:03:08;;;;;;;24.52;11.63;;;;;;;;;;4977419;28;20220;-65
2022/12/21 13:05:34;;;;;;;26.67;13.07;;;;;;;;;;4993795;28;20220;-65
2022/12/21 13:08:11;;;;;;;25.25;11.60;;;;;;;;;;4994839;28;20254;-65
2022/12/21 13:10:40;;;;;;;22.05;11.50;;;;;;;;;;4976942;28;20601;-65
2022/12/21 13:13:14;;;;;;;20.02;11.10;;;;;;;;;;4993332;28;20216;-65
2022/12/21 13:15:42;;;;;;;19.65;11.13;;;;;;;;;;4977340;28;20310;-65
2022/12/21 13:18:12;;;;;;;23.25;11.65;;;;;;;;;;4976954;28;20209;-65
2022/12/21 13:20:37;;;;;;;19.55;11.18;;;;;;;;;;4976804;28;20259;-65
2022/12/21 13:23:04;;;;;;;23.83;11.00;;;;;;;;;;4993648;28;20307;-65
2022/12/21 13:25:48;;;;;;;20.83;10.95;;;;;;;;;;4994232;28;20574;-65
2022/12/21 13:28:25;;;;;;;20.38;10.98;;;;;;;;;;4993160;28;20242;-65
2022/12/21 13:30:50;;;;;;;21.55;10.77;;;;;;;;;;4978767;28;20247;-65
2022/12/21 13:33:16;;;;;;;17.13;10.30;;;;;;;;;;5012047;28;20244;-65
2022/12/21 13:35:53;;;;;;;23.92;12.63;;;;;;;;;;5012899;28;20215;-64
2022/12/21 13:38:21;;;;;;;18.45;10.43;;;;;;;;;;5011976;28;20240;-65
2022/12/21 13:40:50;;;;;;;20.52;10.30;;;;;;;;;;4997008;28;20666;-65
2022/12/21 13:43:17;;;;;;;20.38;10.43;;;;;;;;;;4991359;28;20355;-65
2022/12/21 13:45:43;;;;;;;20.15;11.88;;;;;;;;;;4994273;28;20437;-64
2022/12/21 13:48:11;;;;;;;25.05;14.48;;;;;;;;;;5010287;28;20224;-65
2022/12/21 13:50:39;;;;;;;18.77;10.57;;;;;;;;;;5013313;28;20675;-66
2022/12/21 13:53:08;;;;;;;21.85;10.88;;;;;;;;;;4993638;28;20755;-65
2022/12/21 13:55:35;;;;;;;20.77;12.23;;;;;;;;;;4998614;28;20216;-66
2022/12/21 13:58:07;;;;;;;18.98;10.05;;;;;;;;;;5012036;28;20216;-66
2022/12/21 14:00:35;;;;;;;23.05;10.82;;;;;;;;;;5009127;28;20217;-67
2022/12/21 14:03:18;;;;;;;20.05;10.85;;;;;;;;;;4991476;28;20229;-66
2022/12/21 14:05:45;;;;;;;19.42;12.07;;;;;;;;;;4996114;28;20434;-65
2022/12/21 14:08:20;;;;;;;17.35;11.23;;;;;;;;;;5011863;28;20278;-66
2022/12/21 14:10:50;;;;;;;21.17;10.02;;;;;;;;;;5011401;28;20258;-66
2022/12/21 14:13:33;;;;;;;19.10;9.70;;;;;;;;;;4994466;28;20208;-65
2022/12/21 14:16:00;;;;;;;23.30;10.43;;;;;;;;;;5009414;28;20205;-65
2022/12/21 14:18:30;;;;;;;17.48;10.32;;;;;;;;;;5011487;28;20419;-66
2022/12/21 14:20:59;;;;;;;20.30;10.48;;;;;;;;;;5012500;28;20227;-66
2022/12/21 14:23:25;;;;;;;18.65;10.00;;;;;;;;;;5011207;28;20213;-65
2022/12/21 14:25:50;;;;;;;22.20;10.83;;;;;;;;;;5012988;28;20782;-65